Cedaredge, CO (81413)

2:52 PM MDT on August 28, 2016 (GMT -0600)
Cedaredge | | Change Station

Elev 6657 ft 38.92 °N, 107.91 °W | Updated 3 minutes ago

Clear
Clear
76.6 °F
Feels Like 78 °F
N
0.0
Wind Variable Wind from SSW

Today
High -- | Low -- °F
--% Chance of Precip.
Yesterday
High -- | Low -- °F
Precip. -- in
Pressure 30.06 in
Visibility 10.0 miles
Clouds Clear
Heat Index 78 °F
Dew Point 48 °F
Humidity 36%
Rainfall 0.00 in
Snow Depth Not available.
6:37 AM 7:47 PM
Waning Crescent, 13% visible
METAR KMTJ 281953Z AUTO 31007KT 10SM CLR 24/08 A3027 RMK AO2 LTG DSNT W-NE SLP178 T02390078
Pressure 30.06 in
Visibility 10.0 miles
Clouds Clear
Heat Index 78 °F
Dew Point 48 °F
Humidity 36%
Rainfall 0.00 in
Snow Depth Not available.
6:37 AM 7:47 PM
Waning Crescent, 13% visible
METAR KMTJ 281953Z AUTO 31007KT 10SM CLR 24/08 A3027 RMK AO2 LTG DSNT W-NE SLP178 T02390078

10-Day Weather Forecast

Almanac

Astronomy

Aug. 28, 2016 Rise Set
Actual Time
Civil Twilight
Nautical Twilight
Astronomical Twilight
Moon
Length of Visible Light
Length of Day
Tomorrow will be .
, % of the Moon is Illuminated

Today's Extremes

State Highs State Lows

Community

WunderPhotos

Upload Photos

1,935,689 photos uploaded!

WunderBlog® & News

Nearby

Air Quality

  Air Quality AQ Index Pollutant
Not available.

Snow Depth

Station Depth Elevation

Earthquake Activity

City Distance Mag. Time & Date
Minimum magnitude displayed is 2.5.

Coastal Water Temperatures

Place Temperature

Stations

Nearby Weather Stations

Station Location Temp. Windchill Dew Point Humidity Wind Precip. Elev Updated Type
                   

Watches & Warnings

There are currently no watches in effect.